Time;durP1;ratioP1;P1;durP2;ratioP2;P2;SDS_P1;SDS_P2;PMS_P1;PMS_P2;Temp;Humidity;BMP_temperature;BMP_pressure;BME280_temperature;BME280_humidity;BME280_pressure;Samples;Min_cycle;Max_cycle;Signal;HPM_P1;HPM_P2
2023/07/08 00:00:30;;;;;;;;;;;;;;;24.35;63.58;100751.41;7397265;19;1714;-50
2023/07/08 00:02:58;;;;;;;;;;;;;;;24.22;63.75;100769.00;7397308;19;1720;-50
2023/07/08 00:05:28;;;;;;;;;;;;;;;24.19;63.75;100780.16;7397635;19;1867;-49
2023/07/08 00:07:59;;;;;;;;;;;;;;;24.14;63.62;100777.09;7398644;19;1033;-50
2023/07/08 00:10:28;;;;;;;;;;;;;;;24.06;64.02;100774.41;7395411;19;1524;-50
2023/07/08 00:12:57;;;;;;;;;;;;;;;24.13;63.62;100779.97;7395862;19;1476;-50
2023/07/08 00:15:28;;;;;;;;;;;;;;;24.12;63.53;100767.50;7397366;19;1370;-50
2023/07/08 00:17:56;;;;;;;;;;;;;;;24.24;63.62;100786.91;7397194;19;1468;-49
2023/07/08 00:20:30;;;;;;;;;;;;;;;24.05;63.91;100783.50;7396452;19;1828;-49
2023/07/08 00:23:01;;;;;;;;;;;;;;;24.10;63.97;100770.34;7395949;19;1187;-49
2023/07/08 00:25:30;;;;;;;;;;;;;;;24.07;63.70;100770.69;7395784;19;1838;-50
2023/07/08 00:27:58;;;;;;;;;;;;;;;24.02;63.86;100773.91;7397155;19;1057;-50
2023/07/08 00:30:27;;;;;;;;;;;;;;;24.15;63.53;100768.00;7396031;19;1549;-50
2023/07/08 00:32:56;;;;;;;;;;;;;;;24.13;63.64;100770.03;7395485;19;1496;-50
2023/07/08 00:35:25;;;;;;;;;;;;;;;24.25;63.21;100772.38;7395129;19;1303;-50
2023/07/08 00:38:01;;;;;;;;;;;;;;;24.12;63.52;100765.63;7395706;19;1164;-50
2023/07/08 00:40:32;;;;;;;;;;;;;;;24.12;63.55;100768.31;7396158;19;1555;-50
2023/07/08 00:43:03;;;;;;;;;;;;;;;24.09;63.57;100763.25;7393443;19;1500;-50
2023/07/08 00:45:40;;;;;;;;;;;;;;;24.22;63.15;100778.97;7395656;19;1848;-50
2023/07/08 00:48:10;;;;;;;;;;;;;;;24.09;63.40;100765.94;7395198;19;1195;-50
2023/07/08 00:50:38;;;;;;;;;;;;;;;24.05;63.45;100756.50;7395645;19;1246;-50
2023/07/08 00:53:24;;;;;;;;;;;;;;;24.07;63.87;100759.88;7395092;19;1198;-49
2023/07/08 00:55:57;;;;;;;;;;;;;;;24.17;63.23;100747.06;7395558;19;1524;-50
2023/07/08 00:58:27;;;;;;;;;;;;;;;24.20;63.44;100733.19;7393278;19;1203;-50
2023/07/08 01:00:56;;;;;;;;;;;;;;;24.14;63.73;100728.47;7395385;19;1172;-49
2023/07/08 01:03:27;;;;;;;;;;;;;;;24.09;63.74;100744.34;7399306;19;1531;-49
2023/07/08 01:05:59;;;;;;;;;;;;;;;24.32;63.99;100751.75;7401629;19;1841;-50
2023/07/08 01:08:30;;;;;;;;;;;;;;;24.36;63.30;100739.59;7402874;19;1064;-49
2023/07/08 01:11:04;;;;;;;;;;;;;;;23.94;65.00;100760.38;7402399;19;1246;-49
2023/07/08 01:13:34;;;;;;;;;;;;;;;23.96;64.60;100774.56;7401546;19;1156;-49
2023/07/08 01:16:02;;;;;;;;;;;;;;;23.95;64.61;100772.03;7402219;19;1610;-50
2023/07/08 01:18:31;;;;;;;;;;;;;;;24.09;64.21;100786.72;7402203;19;1468;-49
2023/07/08 01:21:06;;;;;;;;;;;;;;;24.15;63.83;100776.09;7402279;19;1238;-50
2023/07/08 01:23:37;;;;;;;;;;;;;;;24.06;64.47;100768.16;7401030;19;1239;-49
2023/07/08 01:26:06;;;;;;;;;;;;;;;24.19;63.42;100777.44;7400903;19;1839;-49
2023/07/08 01:28:35;;;;;;;;;;;;;;;23.95;64.11;100772.03;7401240;19;1169;-49
2023/07/08 01:31:03;;;;;;;;;;;;;;;24.17;63.69;100784.03;7401403;19;1527;-49
2023/07/08 01:33:34;;;;;;;;;;;;;;;23.99;64.10;100766.16;7401553;19;1263;-50
2023/07/08 01:36:02;;;;;;;;;;;;;;;24.13;63.50;100770.03;7401482;19;1270;-50
2023/07/08 01:38:30;;;;;;;;;;;;;;;24.26;63.32;100752.44;7400402;19;1151;-50
2023/07/08 01:41:01;;;;;;;;;;;;;;;24.10;63.86;100775.75;7402105;19;1461;-50
2023/07/08 01:43:29;;;;;;;;;;;;;;;24.16;63.81;100777.78;7401844;19;1318;-49
2023/07/08 01:46:01;;;;;;;;;;;;;;;24.08;63.93;100764.28;7399320;19;1845;-49
2023/07/08 01:48:32;;;;;;;;;;;;;;;24.24;63.42;100760.72;7401908;19;1291;-49
2023/07/08 01:51:02;;;;;;;;;;;;;;;24.19;63.75;100769.34;7401794;19;1468;-49
2023/07/08 01:53:32;;;;;;;;;;;;;;;24.08;63.99;100766.97;7401653;19;1722;-49
2023/07/08 01:56:03;;;;;;;;;;;;;;;24.06;64.04;100777.09;7401281;19;1788;-49
2023/07/08 01:58:32;;;;;;;;;;;;;;;24.20;64.10;100781.81;7400744;19;1081;-49
2023/07/08 02:01:00;;;;;;;;;;;;;;;24.44;63.37;100772.00;7403484;19;1021;-49
2023/07/08 02:03:29;;;;;;;;;;;;;;;24.48;64.13;100765.25;7402470;19;1919;-50
2023/07/08 02:05:57;;;;;;;;;;;;;;;24.36;64.19;100783.69;7400467;19;1847;-50
2023/07/08 02:08:25;;;;;;;;;;;;;;;24.24;63.93;100792.31;7400575;19;1456;-49
2023/07/08 02:10:56;;;;;;;;;;;;;;;24.13;64.19;100791.66;7400322;19;1414;-49
2023/07/08 02:13:27;;;;;;;;;;;;;;;24.01;64.77;100814.56;7399590;19;1242;-49
2023/07/08 02:15:55;;;;;;;;;;;;;;;24.04;64.79;100798.03;7398646;19;1532;-49
2023/07/08 02:18:24;;;;;;;;;;;;;;;24.26;63.75;100790.28;7399972;19;1645;-49
2023/07/08 02:20:53;;;;;;;;;;;;;;;24.42;63.23;100791.09;7399893;19;1254;-49
2023/07/08 02:23:21;;;;;;;;;;;;;;;24.30;63.69;100810.53;7401148;19;1223;-49
2023/07/08 02:25:53;;;;;;;;;;;;;;;24.14;64.24;100825.75;7400396;19;1847;-49
2023/07/08 02:28:22;;;;;;;;;;;;;;;24.05;64.84;100834.00;7400684;19;1738;-49
2023/07/08 02:30:52;;;;;;;;;;;;;;;24.05;64.71;100847.50;7400887;19;1471;-49
2023/07/08 02:33:32;;;;;;;;;;;;;;;24.04;64.64;100830.47;7400685;19;1651;-50
2023/07/08 02:36:00;;;;;;;;;;;;;;;24.08;64.27;100837.22;7400081;19;1851;-49
2023/07/08 02:38:29;;;;;;;;;;;;;;;24.13;64.63;100845.69;7401176;19;976;-49
2023/07/08 02:40:57;;;;;;;;;;;;;;;24.22;64.16;100828.44;7398944;19;1521;-49
2023/07/08 02:43:25;;;;;;;;;;;;;;;24.29;64.42;100835.88;7399315;19;1846;-49
2023/07/08 02:45:56;;;;;;;;;;;;;;;24.17;64.53;100833.53;7398105;19;1862;-49
2023/07/08 02:48:24;;;;;;;;;;;;;;;24.03;65.11;100834.16;7398234;19;1614;-49
2023/07/08 02:50:53;;;;;;;;;;;;;;;23.99;65.28;100838.22;7399729;19;1780;-49
2023/07/08 02:53:21;;;;;;;;;;;;;;;24.00;65.20;100843.44;7397999;19;1596;-49
2023/07/08 02:55:50;;;;;;;;;;;;;;;24.06;65.17;100839.25;7398280;19;1171;-50
2023/07/08 02:58:18;;;;;;;;;;;;;;;24.03;65.40;100831.47;7397481;19;1456;-49
2023/07/08 03:00:46;;;;;;;;;;;;;;;24.26;64.48;100817.31;7399034;19;1574;-49
2023/07/08 03:03:17;;;;;;;;;;;;;;;24.49;64.30;100820.16;7399208;19;1544;-49
2023/07/08 03:05:45;;;;;;;;;;;;;;;24.40;65.58;100817.44;7398989;19;1290;-49
2023/07/08 03:08:14;;;;;;;;;;;;;;;24.23;66.02;100826.56;7400505;19;1831;-50
2023/07/08 03:10:43;;;;;;;;;;;;;;;24.33;65.31;100816.47;7398163;19;1477;-49
2023/07/08 03:13:11;;;;;;;;;;;;;;;24.15;65.51;100810.38;7397984;19;1374;-49
2023/07/08 03:15:39;;;;;;;;;;;;;;;24.16;65.61;100821.00;7397216;19;1788;-49
2023/07/08 03:18:07;;;;;;;;;;;;;;;24.25;65.33;100818.31;7397500;19;1473;-49
2023/07/08 03:20:38;;;;;;;;;;;;;;;24.24;65.65;100816.63;7399382;19;1643;-49
2023/07/08 03:23:07;;;;;;;;;;;;;;;24.19;66.20;100822.53;7398442;19;1654;-49
2023/07/08 03:25:37;;;;;;;;;;;;;;;24.25;66.17;100826.41;7396775;19;1824;-49
2023/07/08 03:28:06;;;;;;;;;;;;;;;24.28;65.37;100831.50;7397052;19;1857;-49
2023/07/08 03:30:35;;;;;;;;;;;;;;;23.99;66.22;100835.50;7399931;19;1020;-49
2023/07/08 03:33:03;;;;;;;;;;;;;;;24.22;65.15;100831.13;7399449;19;1051;-49
2023/07/08 03:35:31;;;;;;;;;;;;;;;24.34;64.90;100814.59;7396227;19;1981;-49
2023/07/08 03:38:02;;;;;;;;;;;;;;;24.22;65.28;100812.22;7397176;19;1517;-50
2023/07/08 03:40:30;;;;;;;;;;;;;;;24.02;66.56;100816.28;7397642;19;1535;-49
2023/07/08 03:42:59;;;;;;;;;;;;;;;23.90;66.89;100833.81;7397011;19;1540;-49
2023/07/08 03:45:28;;;;;;;;;;;;;;;23.87;66.97;100840.38;7397071;19;1207;-49
2023/07/08 03:47:56;;;;;;;;;;;;;;;23.90;66.72;100834.66;7395799;19;1871;-49
2023/07/08 03:50:25;;;;;;;;;;;;;;;23.90;66.84;100836.53;7396968;19;1544;-48
2023/07/08 03:52:55;;;;;;;;;;;;;;;23.82;67.12;100846.28;7397003;19;1584;-49
2023/07/08 03:55:26;;;;;;;;;;;;;;;23.68;67.13;100840.66;7397066;19;1543;-49
2023/07/08 03:57:54;;;;;;;;;;;;;;;23.86;67.02;100840.56;7395677;19;1611;-49
2023/07/08 04:00:22;;;;;;;;;;;;;;;23.78;66.87;100842.22;7397005;19;1485;-49
2023/07/08 04:02:51;;;;;;;;;;;;;;;23.77;67.31;100842.38;7397505;19;1503;-50
2023/07/08 04:05:20;;;;;;;;;;;;;;;23.79;67.29;100832.28;7397366;19;1055;-49
2023/07/08 04:07:49;;;;;;;;;;;;;;;23.78;66.90;100855.72;7394993;19;2006;-49
2023/07/08 04:10:18;;;;;;;;;;;;;;;23.82;67.06;100832.78;7398090;19;1678;-49
2023/07/08 04:12:49;;;;;;;;;;;;;;;23.91;66.59;100830.09;7396578;19;1805;-49
2023/07/08 04:15:17;;;;;;;;;;;;;;;23.85;66.85;100833.47;7397842;19;1771;-49
2023/07/08 04:17:47;;;;;;;;;;;;;;;23.90;66.34;100817.63;7397409;19;1815;-49
2023/07/08 04:20:16;;;;;;;;;;;;;;;24.02;66.04;100830.63;7396656;19;1412;-49
2023/07/08 04:22:44;;;;;;;;;;;;;;;23.89;66.55;100815.91;7397280;19;1350;-49
2023/07/08 04:25:14;;;;;;;;;;;;;;;23.71;66.95;100819.56;7396289;19;1464;-49
2023/07/08 04:27:42;;;;;;;;;;;;;;;23.90;66.53;100806.81;7396594;19;1855;-49
2023/07/08 04:30:21;;;;;;;;;;;;;;;24.08;66.07;100799.41;7397052;19;1928;-49
2023/07/08 04:32:49;;;;;;;;;;;;;;;23.99;66.30;100816.59;7396437;19;1622;-49
2023/07/08 04:35:17;;;;;;;;;;;;;;;24.07;66.04;100810.38;7395902;19;1422;-49
2023/07/08 04:37:47;;;;;;;;;;;;;;;24.21;65.78;100805.16;7399363;19;1968;-49
2023/07/08 04:40:18;;;;;;;;;;;;;;;24.08;66.02;100817.47;7402822;19;1637;-49
2023/07/08 04:42:47;;;;;;;;;;;;;;;24.15;65.98;100821.16;7404224;19;1265;-49
2023/07/08 04:45:18;;;;;;;;;;;;;;;24.14;66.01;100814.94;7402447;19;1754;-49
2023/07/08 04:47:51;;;;;;;;;;;;;;;24.23;65.68;100834.69;7400950;19;1842;-49
2023/07/08 04:50:20;;;;;;;;;;;;;;;24.14;66.20;100825.75;7402301;19;1306;-49
2023/07/08 04:52:49;;;;;;;;;;;;;;;24.21;65.82;100837.56;7403170;19;1159;-49
2023/07/08 04:55:18;;;;;;;;;;;;;;;24.19;66.42;100836.03;7402713;19;1449;-49
2023/07/08 04:57:46;;;;;;;;;;;;;;;24.00;67.35;100856.13;7401250;19;1211;-49
2023/07/08 05:00:17;;;;;;;;;;;;;;;23.80;68.33;100852.88;7403155;19;1245;-50
2023/07/08 05:02:48;;;;;;;;;;;;;;;23.77;68.32;100866.66;7403520;19;1659;-49
2023/07/08 05:05:16;;;;;;;;;;;;;;;23.94;67.76;100859.50;7402427;19;1671;-50
2023/07/08 05:07:45;;;;;;;;;;;;;;;24.10;67.04;100859.50;7402161;19;1849;-50
2023/07/08 05:10:13;;;;;;;;;;;;;;;24.08;66.86;100858.84;7403248;19;1757;-52
2023/07/08 05:12:41;;;;;;;;;;;;;;;24.03;67.03;100866.56;7403372;19;1657;-51
2023/07/08 05:15:10;;;;;;;;;;;;;;;24.11;66.70;100880.09;7404197;19;1003;-50
2023/07/08 05:17:39;;;;;;;;;;;;;;;23.84;68.42;100875.00;7399560;19;1481;-51
2023/07/08 05:20:13;;;;;;;;;;;;;;;23.75;68.71;100869.53;7402664;19;1753;-51
2023/07/08 05:22:42;;;;;;;;;;;;;;;23.83;68.27;100887.63;7402748;19;1728;-51
2023/07/08 05:25:11;;;;;;;;;;;;;;;23.97;68.44;100872.66;7402029;19;1643;-50
2023/07/08 05:27:40;;;;;;;;;;;;;;;23.73;68.69;100866.13;7401226;19;2181;-51
2023/07/08 05:30:09;;;;;;;;;;;;;;;23.85;68.53;100868.56;7401939;19;1108;-52
2023/07/08 05:32:38;;;;;;;;;;;;;;;23.97;68.33;100861.84;7402607;19;1037;-51
2023/07/08 05:35:06;;;;;;;;;;;;;;;23.88;68.75;100849.34;7401405;19;1171;-51
2023/07/08 05:37:39;;;;;;;;;;;;;;;24.01;67.80;100855.09;7401596;19;1537;-50
2023/07/08 05:40:08;;;;;;;;;;;;;;;23.87;68.43;100862.00;7401398;19;1547;-49
2023/07/08 05:42:37;;;;;;;;;;;;;;;23.90;68.21;100858.13;7401281;19;1656;-49
2023/07/08 05:45:06;;;;;;;;;;;;;;;23.77;68.35;100877.47;7400724;19;1088;-49
2023/07/08 05:47:34;;;;;;;;;;;;;;;23.70;68.72;100858.38;7399406;19;1863;-49
2023/07/08 05:50:03;;;;;;;;;;;;;;;23.70;69.23;100876.44;7398681;19;1797;-47
2023/07/08 05:52:31;;;;;;;;;;;;;;;23.95;67.98;100880.91;7399499;19;1460;-49
2023/07/08 05:55:02;;;;;;;;;;;;;;;23.89;68.59;100872.63;7397717;19;1690;-49
2023/07/08 05:57:30;;;;;;;;;;;;;;;23.74;69.11;100885.91;7394326;19;1114;-49
2023/07/08 05:59:58;;;;;;;;;;;;;;;23.72;69.02;100888.78;7397899;19;1004;-49
2023/07/08 06:02:27;;;;;;;;;;;;;;;23.84;68.35;100880.41;7396934;19;1995;-50
2023/07/08 06:04:55;;;;;;;;;;;;;;;23.71;68.89;100889.75;7396507;19;1860;-49
2023/07/08 06:07:23;;;;;;;;;;;;;;;23.85;69.01;100899.13;7398342;19;1860;-51
2023/07/08 06:09:51;;;;;;;;;;;;;;;23.84;68.43;100896.59;7400717;19;1460;-50
2023/07/08 06:12:23;;;;;;;;;;;;;;;23.78;69.26;100917.84;7399207;19;1851;-49
2023/07/08 06:14:52;;;;;;;;;;;;;;;23.79;68.84;100908.72;7399909;19;1465;-60
2023/07/08 06:17:20;;;;;;;;;;;;;;;23.76;68.85;100924.41;7401302;19;1540;-49
2023/07/08 06:19:49;;;;;;;;;;;;;;;23.78;68.68;100917.84;7402121;19;1008;-49
2023/07/08 06:22:17;;;;;;;;;;;;;;;23.74;68.80;100923.72;7400843;19;1602;-49
2023/07/08 06:24:47;;;;;;;;;;;;;;;23.72;69.15;100934.66;7401496;19;1852;-50
2023/07/08 06:27:15;;;;;;;;;;;;;;;23.65;69.89;100932.78;7400368;19;1849;-49
2023/07/08 06:29:47;;;;;;;;;;;;;;;23.62;69.89;100924.00;7399268;19;1469;-49
2023/07/08 06:32:15;;;;;;;;;;;;;;;23.69;70.29;100936.84;7400582;19;1397;-49
2023/07/08 06:34:44;;;;;;;;;;;;;;;23.69;70.17;100934.97;7400067;19;1738;-52
2023/07/08 06:37:12;;;;;;;;;;;;;;;23.51;70.17;100920.72;7396103;19;1714;-50
2023/07/08 06:39:40;;;;;;;;;;;;;;;23.54;70.44;100905.06;7396726;19;1331;-49
2023/07/08 06:42:09;;;;;;;;;;;;;;;23.75;69.43;100917.28;7399972;19;1603;-49
2023/07/08 06:44:37;;;;;;;;;;;;;;;23.59;69.29;100910.81;7397867;19;1599;-49
2023/07/08 06:47:08;;;;;;;;;;;;;;;23.66;68.79;100924.53;7398009;19;1844;-49
2023/07/08 06:49:37;;;;;;;;;;;;;;;23.80;68.86;100926.63;7397330;19;1184;-49
2023/07/08 06:52:05;;;;;;;;;;;;;;;23.75;69.18;100939.72;7397782;19;1100;-49
2023/07/08 06:54:33;;;;;;;;;;;;;;;23.82;69.29;100923.78;7397927;19;1935;-49
2023/07/08 06:57:01;;;;;;;;;;;;;;;23.81;69.45;100917.53;7396203;19;1203;-50
2023/07/08 06:59:30;;;;;;;;;;;;;;;23.66;69.83;100907.50;7397041;19;1461;-50
2023/07/08 07:01:58;;;;;;;;;;;;;;;23.71;69.41;100924.88;7396778;19;1180;-50
2023/07/08 07:04:32;;;;;;;;;;;;;;;23.60;70.17;100923.31;7396747;19;1425;-49
2023/07/08 07:07:00;;;;;;;;;;;;;;;23.57;70.23;100922.78;7390287;19;1265;-48
2023/07/08 07:09:28;;;;;;;;;;;;;;;23.68;69.75;100924.38;7389702;19;1843;-49
2023/07/08 07:11:57;;;;;;;;;;;;;;;23.90;69.25;100936.47;7394906;19;1583;-49
2023/07/08 07:14:25;;;;;;;;;;;;;;;23.81;69.53;100933.72;7397212;19;1477;-50
2023/07/08 07:16:53;;;;;;;;;;;;;;;23.90;69.23;100928.34;7395991;19;1865;-48
2023/07/08 07:19:21;;;;;;;;;;;;;;;23.98;68.82;100931.06;7395111;19;1435;-49
2023/07/08 07:21:52;;;;;;;;;;;;;;;24.14;68.30;100943.78;7395576;19;1583;-48
2023/07/08 07:24:21;;;;;;;;;;;;;;;24.01;68.93;100933.44;7396798;19;1673;-49
2023/07/08 07:26:49;;;;;;;;;;;;;;;24.16;68.47;100936.34;7395752;19;1584;-49
2023/07/08 07:29:18;;;;;;;;;;;;;;;24.26;68.13;100928.94;7394502;19;1851;-48
2023/07/08 07:31:49;;;;;;;;;;;;;;;24.29;68.09;100935.84;7393623;19;1287;-49
2023/07/08 07:34:17;;;;;;;;;;;;;;;24.42;67.85;100942.47;7395531;19;1378;-49
2023/07/08 07:36:46;;;;;;;;;;;;;;;24.33;68.11;100953.44;7394585;19;1388;-48
2023/07/08 07:39:16;;;;;;;;;;;;;;;24.35;68.17;100943.28;7387154;19;1049;-48
2023/07/08 07:41:45;;;;;;;;;;;;;;;24.40;67.78;100951.75;7394229;19;1430;-49
2023/07/08 07:44:13;;;;;;;;;;;;;;;24.39;67.93;100942.81;7395466;19;1441;-48
2023/07/08 07:46:41;;;;;;;;;;;;;;;24.41;67.91;100948.03;7395110;19;1491;-48
2023/07/08 07:49:10;;;;;;;;;;;;;;;24.47;68.01;100947.41;7392906;19;1854;-49
2023/07/08 07:51:38;;;;;;;;;;;;;;;24.51;67.71;100927.16;7392459;19;1378;-50
2023/07/08 07:54:06;;;;;;;;;;;;;;;24.49;68.24;100939.97;7393888;19;1410;-49
2023/07/08 07:56:37;;;;;;;;;;;;;;;24.37;68.73;100939.44;7394443;19;1511;-49
2023/07/08 07:59:06;;;;;;;;;;;;;;;24.37;68.48;100939.44;7394554;19;1386;-49
2023/07/08 08:01:34;;;;;;;;;;;;;;;24.34;69.04;100928.94;7385687;19;1112;-49
2023/07/08 08:04:02;;;;;;;;;;;;;;;24.36;69.70;100947.72;7390878;19;1214;-50
2023/07/08 08:06:31;;;;;;;;;;;;;;;24.42;69.12;100936.22;7392719;19;1445;-49
2023/07/08 08:08:59;;;;;;;;;;;;;;;24.38;69.11;100941.13;7390171;19;1853;-49
2023/07/08 08:11:28;;;;;;;;;;;;;;;24.50;68.56;100933.56;7391015;19;2076;-49
2023/07/08 08:13:59;;;;;;;;;;;;;;;24.46;69.16;100923.22;7390388;19;1914;-49
2023/07/08 08:16:28;;;;;;;;;;;;;;;24.64;67.99;100925.78;7326788;19;13846;-49
2023/07/08 08:18:56;;;;;;;;;;;;;;;24.79;67.50;100927.66;7393278;19;1374;-49
2023/07/08 08:21:24;;;;;;;;;;;;;;;24.74;67.66;100931.88;7391760;19;1347;-49
2023/07/08 08:23:53;;;;;;;;;;;;;;;24.50;68.23;100925.44;7386423;19;1354;-50
2023/07/08 08:26:21;;;;;;;;;;;;;;;24.54;68.38;100926.81;7393947;19;1379;-50
2023/07/08 08:28:49;;;;;;;;;;;;;;;24.76;67.96;100932.56;7394079;19;1847;-49
2023/07/08 08:31:20;;;;;;;;;;;;;;;24.51;70.06;100932.56;7393697;19;1597;-48
2023/07/08 08:33:48;;;;;;;;;;;;;;;24.46;69.81;100942.16;7391860;19;1473;-48
2023/07/08 08:36:17;;;;;;;;;;;;;;;24.29;69.57;100927.75;7395010;19;1578;-49
2023/07/08 08:38:45;;;;;;;;;;;;;;;24.27;69.85;100935.19;7390088;19;1114;-49
2023/07/08 08:41:15;;;;;;;;;;;;;;;24.37;69.39;100938.56;7390486;19;1811;-50
2023/07/08 08:43:45;;;;;;;;;;;;;;;24.47;69.27;100950.09;7394508;19;1500;-48
2023/07/08 08:46:18;;;;;;;;;;;;;;;24.45;69.83;100953.97;7394687;19;1438;-48
2023/07/08 08:48:54;;;;;;;;;;;;;;;24.44;68.68;100942.31;7392043;19;1878;-48
2023/07/08 08:51:23;;;;;;;;;;;;;;;24.36;69.52;100963.94;7392203;19;1472;-48
2023/07/08 08:53:51;;;;;;;;;;;;;;;24.37;69.41;100952.94;7394300;19;1088;-49
2023/07/08 08:56:22;;;;;;;;;;;;;;;24.45;68.71;100951.25;7392783;19;1822;-49
2023/07/08 08:58:54;;;;;;;;;;;;;;;24.36;68.70;100963.94;7389923;19;1850;-48
2023/07/08 09:01:23;;;;;;;;;;;;;;;24.43;68.22;100964.94;7392057;19;1461;-50
2023/07/08 09:03:57;;;;;;;;;;;;;;;24.29;69.13;100968.28;7393005;19;1139;-49
2023/07/08 09:06:27;;;;;;;;;;;;;;;24.38;68.51;100967.31;7393303;19;1472;-49
2023/07/08 09:08:56;;;;;;;;;;;;;;;24.40;68.59;100959.88;7390475;19;1874;-53
2023/07/08 09:11:30;;;;;;;;;;;;;;;24.38;68.60;100954.63;7388423;19;1550;-53
2023/07/08 09:13:58;;;;;;;;;;;;;;;24.20;68.72;100954.75;7392045;19;1445;-53
2023/07/08 09:16:32;;;;;;;;;;;;;;;24.46;68.01;100975.44;7389605;19;1584;-53
2023/07/08 09:19:09;;;;;;;;;;;;;;;24.69;67.42;100963.97;7393550;19;1634;-54
2023/07/08 09:21:40;;;;;;;;;;;;;;;24.40;68.42;100965.28;7392406;19;1243;-58
2023/07/08 09:24:12;;;;;;;;;;;;;;;24.35;68.35;100962.22;7393823;19;1540;-52
2023/07/08 09:26:41;;;;;;;;;;;;;;;24.30;68.58;100949.22;7401624;19;1208;-53
2023/07/08 09:29:11;;;;;;;;;;;;;;;24.27;68.06;100963.03;7398367;19;1851;-52
2023/07/08 09:31:42;;;;;;;;;;;;;;;24.27;67.70;100948.69;7397908;19;2064;-52
2023/07/08 09:34:14;;;;;;;;;;;;;;;24.37;67.39;100955.66;7400265;19;1607;-52
2023/07/08 09:36:41;;;;;;;;;;;;;;;24.40;67.50;100954.47;7400534;19;1555;-52
2023/07/08 09:39:12;;;;;;;;;;;;;;;24.40;66.78;100959.88;7400467;19;1223;-55
2023/07/08 09:41:40;;;;;;;;;;;;;;;24.37;66.95;100957.50;7399390;19;1512;-53
2023/07/08 09:44:15;;;;;;;;;;;;;;;24.33;65.91;100948.03;7398996;19;1509;-52
2023/07/08 09:46:44;;;;;;;;;;;;;;;24.34;65.97;100955.13;7400214;19;1049;-52
2023/07/08 09:49:17;;;;;;;;;;;;;;;24.35;66.69;100946.88;7397334;19;1846;-52
2023/07/08 09:51:46;;;;;;;;;;;;;;;24.44;65.91;100939.59;7396722;19;1553;-52
2023/07/08 09:54:15;;;;;;;;;;;;;;;24.66;65.20;100957.06;7398739;19;1266;-51
2023/07/08 09:56:45;;;;;;;;;;;;;;;24.72;65.22;100947.44;7398576;19;1275;-52
2023/07/08 09:59:15;;;;;;;;;;;;;;;24.63;65.70;100945.72;7398623;19;1274;-52
2023/07/08 10:01:44;;;;;;;;;;;;;;;24.60;65.99;100938.81;7398190;19;1965;-52
2023/07/08 10:04:15;;;;;;;;;;;;;;;24.72;65.68;100933.91;7398832;19;1235;-52
2023/07/08 10:06:46;;;;;;;;;;;;;;;24.66;65.10;100932.72;7398206;19;1284;-53
2023/07/08 10:09:18;;;;;;;;;;;;;;;24.62;65.34;100931.38;7398213;19;1866;-52
2023/07/08 10:11:50;;;;;;;;;;;;;;;24.07;64.96;100840.06;7395474;19;1409;-52
2023/07/08 10:14:24;;;;;;;;;;;;;;;24.73;65.02;100935.59;7398200;19;1334;-52
2023/07/08 10:16:52;;;;;;;;;;;;;;;24.61;65.39;100925.13;7397912;19;1305;-52
2023/07/08 10:19:23;;;;;;;;;;;;;;;24.87;64.45;100923.22;7398475;19;1199;-52
2023/07/08 10:21:58;;;;;;;;;;;;;;;24.96;64.08;100920.34;6885147;19;10000572;-52
2023/07/08 10:24:32;;;;;;;;;;;;;;;24.84;64.71;100904.66;7387670;19;1618;-52
2023/07/08 10:27:08;;;;;;;;;;;;;;;24.72;65.28;100907.69;7392404;19;2053;-53
2023/07/08 10:29:41;;;;;;;;;;;;;;;24.83;64.81;100903.81;7391351;19;1858;-53
2023/07/08 10:32:11;;;;;;;;;;;;;;;24.89;64.55;100911.25;7393571;19;1383;-52
2023/07/08 10:34:48;;;;;;;;;;;;;;;24.94;64.58;100900.75;7392256;19;1979;-52
2023/07/08 10:37:24;;;;;;;;;;;;;;;24.93;64.58;100890.94;7391966;19;1808;-52
2023/07/08 10:40:00;;;;;;;;;;;;;;;24.91;64.61;100897.53;7391771;19;1910;-53
2023/07/08 10:42:43;;;;;;;;;;;;;;;24.86;64.96;100899.91;7391559;19;1799;-52
2023/07/08 10:45:14;;;;;;;;;;;;;;;24.74;64.79;100894.00;7392223;19;1659;-53
2023/07/08 10:47:54;;;;;;;;;;;;;;;24.73;64.96;100890.47;7391232;19;1612;-53
2023/07/08 10:50:30;;;;;;;;;;;;;;;24.68;65.15;100898.25;7389805;19;1852;-53
2023/07/08 10:53:20;;;;;;;;;;;;;;;24.67;65.22;100895.69;7392121;19;1492;-53
2023/07/08 10:55:52;;;;;;;;;;;;;;;24.69;65.34;100872.03;7391199;19;1496;-53
2023/07/08 10:58:31;;;;;;;;;;;;;;;24.58;65.55;100876.78;7389714;19;1581;-53
2023/07/08 11:01:06;;;;;;;;;;;;;;;24.61;66.95;100881.00;7391505;19;1528;-53
2023/07/08 11:03:41;;;;;;;;;;;;;;;24.56;66.25;100870.69;7391340;19;1564;-53
2023/07/08 11:06:14;;;;;;;;;;;;;;;24.55;66.65;100874.44;7391109;19;1872;-53
2023/07/08 11:08:45;;;;;;;;;;;;;;;24.65;66.74;100884.22;7391068;19;1873;-54
2023/07/08 11:11:21;;;;;;;;;;;;;;;24.76;66.38;100873.88;7391448;19;1501;-54
2023/07/08 11:13:53;;;;;;;;;;;;;;;24.76;65.36;100862.22;7391534;19;1656;-54
2023/07/08 11:16:25;;;;;;;;;;;;;;;24.78;64.39;100865.59;7391721;19;1504;-53
2023/07/08 11:18:55;;;;;;;;;;;;;;;24.80;64.18;100863.56;7392551;19;1722;-54
2023/07/08 11:21:34;;;;;;;;;;;;;;;24.73;65.04;100858.03;7392250;19;1815;-53
2023/07/08 11:24:05;;;;;;;;;;;;;;;24.90;64.69;100874.22;7390420;19;2552;-54
2023/07/08 11:26:36;;;;;;;;;;;;;;;25.01;64.77;100857.63;7391740;19;1905;-54
2023/07/08 11:29:05;;;;;;;;;;;;;;;24.91;63.58;100863.22;7388994;19;1875;-53
2023/07/08 11:31:35;;;;;;;;;;;;;;;24.87;64.32;100858.31;7390934;19;1822;-54
2023/07/08 11:34:05;;;;;;;;;;;;;;;24.83;64.59;100856.97;7389674;19;1820;-53
2023/07/08 11:36:36;;;;;;;;;;;;;;;24.72;64.56;100864.44;7391498;19;1588;-53
2023/07/08 11:39:05;;;;;;;;;;;;;;;24.83;64.95;100868.66;7392434;19;1390;-54
2023/07/08 11:41:34;;;;;;;;;;;;;;;24.83;64.69;100865.09;7390561;19;1548;-53
2023/07/08 11:44:05;;;;;;;;;;;;;;;24.71;65.49;100870.88;7389839;19;1627;-53
2023/07/08 11:46:35;;;;;;;;;;;;;;;24.73;65.52;100860.72;7390584;19;1648;-54
2023/07/08 11:49:04;;;;;;;;;;;;;;;24.78;65.31;100860.19;7389245;19;1870;-54
2023/07/08 11:51:37;;;;;;;;;;;;;;;24.78;64.97;100841.28;7390547;19;1122;-53
2023/07/08 11:54:14;;;;;;;;;;;;;;;24.84;65.04;100869.50;7391279;19;1528;-54
2023/07/08 11:56:50;;;;;;;;;;;;;;;24.91;64.72;100865.94;7391320;19;1728;-53
2023/07/08 11:59:20;;;;;;;;;;;;;;;25.01;64.60;100861.16;7390331;19;1923;-54
2023/07/08 12:01:50;;;;;;;;;;;;;;;25.01;64.72;100854.91;7389752;19;1841;-54
2023/07/08 12:04:23;;;;;;;;;;;;;;;24.90;64.73;100861.53;7389943;19;1719;-54
2023/07/08 12:06:58;;;;;;;;;;;;;;;24.97;64.72;100869.81;7389745;19;1487;-54
2023/07/08 12:09:30;;;;;;;;;;;;;;;24.95;64.65;100859.16;7391300;19;1843;-53
2023/07/08 12:12:01;;;;;;;;;;;;;;;24.97;64.57;100862.53;7389704;19;1906;-54
2023/07/08 12:14:31;;;;;;;;;;;;;;;24.92;63.92;100867.59;7389493;19;1965;-54
2023/07/08 12:16:59;;;;;;;;;;;;;;;24.91;64.09;100870.47;7389444;19;1510;-53
2023/07/08 12:19:31;;;;;;;;;;;;;;;25.09;64.21;100859.44;7390993;19;1595;-54
2023/07/08 12:22:02;;;;;;;;;;;;;;;24.92;64.74;100853.25;7389556;19;2356;-54
2023/07/08 12:24:31;;;;;;;;;;;;;;;24.86;64.47;100857.47;7389964;19;1465;-54
2023/07/08 12:26:59;;;;;;;;;;;;;;;24.89;63.61;100867.97;7390666;19;1537;-54
2023/07/08 12:29:27;;;;;;;;;;;;;;;24.88;63.44;100878.94;7390615;19;1849;-53
2023/07/08 12:31:56;;;;;;;;;;;;;;;24.88;63.59;100876.25;7389206;19;1486;-54
2023/07/08 12:34:26;;;;;;;;;;;;;;;24.90;63.13;100874.22;7389343;19;1814;-54
2023/07/08 12:36:55;;;;;;;;;;;;;;;24.81;62.23;100876.09;7389775;19;1489;-54
2023/07/08 12:39:26;;;;;;;;;;;;;;;24.83;61.28;100890.28;7390031;19;1414;-54
2023/07/08 12:41:55;;;;;;;;;;;;;;;24.80;60.21;100882.50;7390519;19;1597;-54
2023/07/08 12:44:25;;;;;;;;;;;;;;;24.84;60.24;100889.25;7389331;19;1852;-54
2023/07/08 12:46:56;;;;;;;;;;;;;;;24.85;60.12;100874.75;7388962;19;1732;-54
2023/07/08 12:49:27;;;;;;;;;;;;;;;24.87;61.35;100886.22;7388976;19;1861;-54
2023/07/08 12:51:55;;;;;;;;;;;;;;;24.74;61.29;100894.84;7393609;19;1492;-54
2023/07/08 12:54:25;;;;;;;;;;;;;;;24.56;60.93;100886.09;7395041;19;1771;-54
2023/07/08 12:56:57;;;;;;;;;;;;;;;24.59;60.74;100893.84;7392668;19;1306;-54
2023/07/08 12:59:26;;;;;;;;;;;;;;;24.65;59.60;100895.88;7400800;19;1588;-54